PAVD METAR and TAF weather

Enter ICAO airport designator
Station Type Date Time Source
PAVD METAR 2020/01/18 23:56 UTC NOAA

PAVD 182356Z 08009G19KT 10SM SCT140 M14/M24 A2971 RMK AO2 SLP061 6//// T11441244 11122 21156


Station Type Date Time Source
PAVD Decoded METAR 2020/01/18 23:56 UTC NOAA

Valdez 2, AK, United States (PAVD) 61-08N 146-16W
Jan 18, 2020 - 06:56 PM EST / 2020.01.18 2356 UTC
Wind: from the E (080 degrees) at 10 MPH (9 KT) gusting to 22 MPH (19 KT):0
Visibility: 10 mile(s):0
Sky conditions: partly cloudy
Temperature: 6.1 F (-14.4 C)
Windchill: -7 F (-22 C):2
Dew Point: -11.9 F (-24.4 C)
Relative Humidity: 42%
Pressure (altimeter): 29.71 in. Hg (1006 hPa)
ob: PAVD 182356Z 08009G19KT 10SM SCT140 M14/M24 A2971 RMK AO2 SLP061 6//// T11441244 11122 21156
cycle: 0

Station Type Date Time Source
PAVD TAF 2020/01/18 18:42 UTC NOAA

TAF PAVD 181740Z 1818/1918 08012G20KT P6SM SKC
FM190400 09008KT P6SM SKC
FM191600 08008KT P6SM VCSH BKN060 OVC120
AMD LTD TO CLD VIS AND WIND

Example: see airport list